createdAt,value
2022-11-27T00:01:45.217Z,37.25
2022-11-27T00:04:14.741Z,41.75
2022-11-27T00:06:44.299Z,32.83
2022-11-27T00:09:15.777Z,33.38
2022-11-27T00:11:45.737Z,35.45
2022-11-27T00:14:16.838Z,35.60
2022-11-27T00:16:47.268Z,32.83
2022-11-27T00:19:16.813Z,34.92
2022-11-27T00:21:45.877Z,37.30
2022-11-27T00:24:15.161Z,38.92
2022-11-27T00:26:44.226Z,35.38
2022-11-27T00:29:13.546Z,33.85
2022-11-27T00:31:42.712Z,38.35
2022-11-27T00:34:13.693Z,36.95
2022-11-27T00:36:46.626Z,36.22
2022-11-27T00:39:17.588Z,32.70
2022-11-27T00:41:46.959Z,36.88
2022-11-27T00:44:16.439Z,33.17
2022-11-27T00:46:45.768Z,36.13
2022-11-27T00:49:17.476Z,33.03
2022-11-27T00:51:46.586Z,42.40
2022-11-27T00:54:16.030Z,35.55
2022-11-27T00:56:45.120Z,33.28
2022-11-27T00:59:14.421Z,36.67
2022-11-27T01:01:45.058Z,36.65
2022-11-27T01:04:18.090Z,39.00
2022-11-27T01:06:47.386Z,35.45
2022-11-27T01:09:17.701Z,32.28
2022-11-27T01:11:46.948Z,35.35
2022-11-27T01:14:18.723Z,33.67
2022-11-27T01:16:47.993Z,34.33
2022-11-27T01:19:19.501Z,36.65
2022-11-27T01:21:49.098Z,34.97
2022-11-27T01:24:18.911Z,33.63
2022-11-27T01:26:48.106Z,30.73
2022-11-27T01:29:17.537Z,30.77
2022-11-27T01:31:46.658Z,38.00
2022-11-27T01:34:19.113Z,32.95
2022-11-27T01:36:48.095Z,30.75
2022-11-27T01:39:19.355Z,31.30
2022-11-27T01:41:49.984Z,34.75
2022-11-27T01:44:51.200Z,29.38
2022-11-27T01:47:35.873Z,29.65
2022-11-27T01:50:20.471Z,28.42
2022-11-27T01:52:53.273Z,31.42
2022-11-27T01:55:31.819Z,30.45
2022-11-27T01:58:05.664Z,33.75
2022-11-27T02:00:35.522Z,31.42
2022-11-27T02:03:04.761Z,28.05
2022-11-27T02:05:35.522Z,23.55
2022-11-27T02:08:10.617Z,26.10
2022-11-27T02:10:48.421Z,26.83
2022-11-27T02:13:24.401Z,26.42
2022-11-27T02:15:59.630Z,22.00
2022-11-27T02:18:37.763Z,23.42
2022-11-27T02:21:18.881Z,23.88
2022-11-27T02:24:17.906Z,21.58
2022-11-27T02:27:28.913Z,21.23
2022-11-27T02:30:02.608Z,21.75
2022-11-27T02:32:37.314Z,18.15
2022-11-27T02:35:13.965Z,22.65
2022-11-27T02:37:48.679Z,20.15
2022-11-27T02:40:26.177Z,16.67
2022-11-27T02:43:01.312Z,19.70
2022-11-27T02:45:35.848Z,20.02
2022-11-27T02:48:06.214Z,18.42
2022-11-27T02:50:38.407Z,15.27
2022-11-27T02:53:14.076Z,15.60
2022-11-27T02:55:46.478Z,17.95
2022-11-27T02:58:19.146Z,16.20
2022-11-27T03:00:51.087Z,15.57
2022-11-27T03:03:25.891Z,14.80
2022-11-27T03:06:02.098Z,16.88
2022-11-27T03:08:37.175Z,12.23
2022-11-27T03:11:08.808Z,16.43
2022-11-27T03:13:43.375Z,13.65
2022-11-27T03:16:19.405Z,12.48
2022-11-27T03:19:00.913Z,12.55
2022-11-27T03:21:35.869Z,9.60
2022-11-27T03:24:05.764Z,8.20
2022-11-27T03:26:34.819Z,12.45
2022-11-27T03:29:08.817Z,13.75
2022-11-27T03:39:24.676Z,10.32
2022-11-27T03:42:03.140Z,10.50
2022-11-27T03:44:41.327Z,11.77
2022-11-27T03:47:19.536Z,10.35
2022-11-27T03:50:03.756Z,11.63
2022-11-27T03:52:44.288Z,10.32
2022-11-27T03:55:18.686Z,13.13
2022-11-27T03:57:56.816Z,14.60
2022-11-27T04:00:26.317Z,13.68
2022-11-27T04:02:55.816Z,15.07
2022-11-27T04:05:25.132Z,16.25
2022-11-27T04:07:55.882Z,19.08
2022-11-27T04:10:25.135Z,19.10
2022-11-27T04:12:54.482Z,17.67
2022-11-27T04:15:23.590Z,19.17
2022-11-27T04:17:52.977Z,23.55
2022-11-27T04:20:22.008Z,24.67
2022-11-27T04:22:51.453Z,24.45
2022-11-27T04:25:22.174Z,19.90
2022-11-27T04:27:52.144Z,20.90
2022-11-27T04:30:21.677Z,19.67
2022-11-27T04:32:51.102Z,24.48
2022-11-27T04:35:20.232Z,20.70
2022-11-27T04:37:49.663Z,21.42
2022-11-27T04:40:19.080Z,23.60
2022-11-27T04:42:50.748Z,23.70
2022-11-27T04:45:19.999Z,21.52
2022-11-27T04:47:49.404Z,21.35
2022-11-27T04:50:18.985Z,22.33
2022-11-27T04:52:48.444Z,23.10
2022-11-27T04:55:17.547Z,25.15
2022-11-27T04:57:48.406Z,22.10
2022-11-27T05:00:18.500Z,21.33
2022-11-27T05:02:47.869Z,23.15
2022-11-27T05:05:17.462Z,22.00
2022-11-27T05:07:46.947Z,25.95
2022-11-27T05:10:16.185Z,23.27
2022-11-27T05:12:45.705Z,23.45
2022-11-27T05:15:16.115Z,24.15
2022-11-27T05:17:45.473Z,28.30
2022-11-27T05:20:14.569Z,26.45
2022-11-27T05:22:44.270Z,31.17
2022-11-27T05:25:13.353Z,25.92
2022-11-27T05:27:42.964Z,25.30
2022-11-27T05:30:12.517Z,31.45
2022-11-27T05:32:43.156Z,28.30
2022-11-27T05:35:12.298Z,28.92
2022-11-27T05:37:41.723Z,31.63
2022-11-27T05:40:11.368Z,27.60
2022-11-27T05:42:40.704Z,30.77
2022-11-27T05:45:10.845Z,28.25
2022-11-27T05:47:40.335Z,30.27
2022-11-27T05:50:11.556Z,29.17
2022-11-27T05:52:40.834Z,29.45
2022-11-27T05:55:10.904Z,31.17
2022-11-27T05:57:40.498Z,29.60
2022-11-27T06:00:11.319Z,27.98
2022-11-27T06:02:40.839Z,29.90
2022-11-27T06:05:11.865Z,24.42
2022-11-27T06:07:41.235Z,31.77
2022-11-27T06:10:10.960Z,25.15
2022-11-27T06:12:40.307Z,26.88
2022-11-27T06:15:10.247Z,23.75
2022-11-27T06:17:39.560Z,29.77
2022-11-27T06:20:11.119Z,29.15
2022-11-27T06:22:40.427Z,31.65
2022-11-27T06:25:10.168Z,33.13
2022-11-27T06:27:39.680Z,29.35
2022-11-27T06:30:10.213Z,36.78
2022-11-27T06:32:39.810Z,35.20
2022-11-27T06:35:11.162Z,40.90
2022-11-27T06:37:40.717Z,35.35
2022-11-27T06:40:10.837Z,39.35
2022-11-27T06:42:40.266Z,35.92
2022-11-27T06:45:10.435Z,38.38
2022-11-27T06:47:39.782Z,34.53
2022-11-27T06:50:11.352Z,32.88
2022-11-27T06:52:40.953Z,32.85
2022-11-27T06:55:10.487Z,31.23
2022-11-27T06:57:40.079Z,32.35
2022-11-27T07:00:10.265Z,33.78
2022-11-27T07:02:39.755Z,38.80
2022-11-27T07:05:09.548Z,34.10
2022-11-27T07:07:43.800Z,36.10
2022-11-27T07:10:13.600Z,40.75
2022-11-27T07:12:42.960Z,29.92
2022-11-27T07:15:12.301Z,35.65
2022-11-27T07:17:41.929Z,36.05
2022-11-27T07:20:11.765Z,36.08
2022-11-27T07:22:42.561Z,37.00
2022-11-27T07:25:11.969Z,32.85
2022-11-27T07:27:41.526Z,41.88
2022-11-27T07:30:11.579Z,36.88
2022-11-27T07:32:41.130Z,31.73
2022-11-27T07:35:10.768Z,35.03
2022-11-27T07:37:41.677Z,35.13
2022-11-27T07:40:11.149Z,37.78
2022-11-27T07:42:40.490Z,42.30
2022-11-27T07:45:10.670Z,42.85
2022-11-27T07:47:40.796Z,32.40
2022-11-27T07:50:11.171Z,31.25
2022-11-27T07:52:42.455Z,35.42
2022-11-27T07:55:11.898Z,36.85
2022-11-27T07:57:42.430Z,36.67
2022-11-27T08:00:12.455Z,34.15
2022-11-27T08:02:42.221Z,37.13
2022-11-27T08:05:13.213Z,40.03
2022-11-27T08:07:44.217Z,43.38
2022-11-27T08:10:13.502Z,44.67
2022-11-27T08:12:42.850Z,41.75
2022-11-27T08:15:12.930Z,40.10
2022-11-27T08:17:42.358Z,42.72
2022-11-27T08:20:11.954Z,41.35
2022-11-27T08:22:41.286Z,33.42
2022-11-27T08:25:11.990Z,35.70
2022-11-27T08:27:41.489Z,35.85
2022-11-27T08:30:11.693Z,26.17
2022-11-27T08:32:41.878Z,32.78
2022-11-27T08:35:12.596Z,30.35
2022-11-27T08:37:42.106Z,28.95
2022-11-27T08:40:13.482Z,29.80
2022-11-27T08:42:43.129Z,32.20
2022-11-27T08:45:12.440Z,26.23
2022-11-27T08:47:43.455Z,24.52
2022-11-27T08:50:12.848Z,29.30
2022-11-27T08:52:42.124Z,25.88
2022-11-27T08:55:12.800Z,24.13
2022-11-27T08:57:42.128Z,28.75
2022-11-27T09:00:13.127Z,19.83
2022-11-27T09:02:42.444Z,22.35
2022-11-27T09:05:12.388Z,28.40
2022-11-27T09:07:42.120Z,29.50
2022-11-27T09:10:12.935Z,27.05
2022-11-27T09:12:43.661Z,26.08
2022-11-27T09:15:13.598Z,25.05
2022-11-27T09:17:43.163Z,23.63
2022-11-27T09:20:14.322Z,28.38
2022-11-27T09:22:43.721Z,25.55
2022-11-27T09:25:14.178Z,18.85
2022-11-27T09:27:43.463Z,27.27
2022-11-27T09:30:13.604Z,20.00
2022-11-27T09:32:43.090Z,22.63
2022-11-27T09:35:12.143Z,15.77
2022-11-27T09:37:41.577Z,22.38
2022-11-27T09:40:16.989Z,14.85
2022-11-27T09:42:54.901Z,17.05
2022-11-27T09:45:25.473Z,15.35
2022-11-27T09:47:57.621Z,12.85
2022-11-27T09:50:30.604Z,17.40
2022-11-27T09:53:05.316Z,19.15
2022-11-27T09:55:41.677Z,20.15
2022-11-27T09:58:19.087Z,26.27
2022-11-27T10:00:49.295Z,21.02
2022-11-27T10:03:25.285Z,24.10
2022-11-27T10:11:18.853Z,34.10
2022-11-27T10:14:11.945Z,27.73
2022-11-27T10:16:45.141Z,23.27
2022-11-27T10:19:28.374Z,28.27
2022-11-27T10:22:01.193Z,28.02
2022-11-27T10:24:39.218Z,28.30
2022-11-27T10:27:19.884Z,26.00
2022-11-27T10:29:54.909Z,26.27
2022-11-27T10:32:53.992Z,33.27
2022-11-27T10:35:20.650Z,31.33
2022-11-27T10:37:53.822Z,32.20
2022-11-27T10:40:28.352Z,27.73
2022-11-27T10:43:09.323Z,28.40
2022-11-27T10:45:50.362Z,30.15
2022-11-27T10:48:20.202Z,27.95
2022-11-27T10:50:50.075Z,31.70
2022-11-27T10:53:28.735Z,29.63
2022-11-27T10:56:15.096Z,30.13
2022-11-27T10:58:51.332Z,27.00
2022-11-27T11:01:24.267Z,26.67
2022-11-27T11:04:24.391Z,27.00
2022-11-27T11:06:55.092Z,29.60
2022-11-27T11:09:27.245Z,29.67
2022-11-27T11:12:07.500Z,30.65
2022-11-27T11:14:37.210Z,26.17
2022-11-27T11:17:18.969Z,26.23
2022-11-27T11:19:48.241Z,25.63
2022-11-27T11:22:18.637Z,23.67
2022-11-27T11:24:50.166Z,22.77
2022-11-27T11:27:24.576Z,29.10
2022-11-27T11:29:56.253Z,23.98
2022-11-27T11:32:29.942Z,24.38
2022-11-27T11:35:01.753Z,25.98
2022-11-27T11:37:33.479Z,21.60
2022-11-27T11:40:10.765Z,23.17
2022-11-27T11:42:54.372Z,26.60
2022-11-27T11:45:26.521Z,21.75
2022-11-27T11:48:02.914Z,22.93
2022-11-27T11:50:37.496Z,20.05
2022-11-27T11:53:16.582Z,24.23
2022-11-27T11:56:07.003Z,22.15
2022-11-27T11:58:50.183Z,24.80
2022-11-27T12:01:38.522Z,21.30
2022-11-27T12:04:40.088Z,22.73
2022-11-27T12:07:20.007Z,17.25
2022-11-27T12:09:58.626Z,22.13
2022-11-27T12:12:45.445Z,25.00
2022-11-27T12:15:23.628Z,23.13
2022-11-27T12:18:02.076Z,21.42
2022-11-27T12:20:48.010Z,25.20
2022-11-27T12:23:43.038Z,21.98
2022-11-27T12:26:23.651Z,20.80
2022-11-27T12:29:27.377Z,37.75
2022-11-27T12:32:42.466Z,45.40
2022-11-27T12:35:32.738Z,40.55
2022-11-27T12:38:25.722Z,37.20
2022-11-27T12:41:13.808Z,34.78
2022-11-27T12:43:48.047Z,26.08
2022-11-27T12:46:22.485Z,23.88
2022-11-27T12:48:57.280Z,23.80
2022-11-27T12:51:30.701Z,16.88
2022-11-27T12:54:07.340Z,16.60
2022-11-27T12:56:42.320Z,15.07
2022-11-27T12:59:20.116Z,17.80
2022-11-27T13:01:53.542Z,16.48
2022-11-27T13:04:27.575Z,19.47
2022-11-27T13:07:06.294Z,19.77
2022-11-27T13:09:46.383Z,17.63
2022-11-27T13:12:25.304Z,19.77
2022-11-27T13:15:01.551Z,18.73
2022-11-27T13:17:36.574Z,21.55
2022-11-27T13:20:14.682Z,21.63
2022-11-27T13:22:44.779Z,24.85
2022-11-27T13:25:16.044Z,28.92
2022-11-27T13:27:50.581Z,21.73
2022-11-27T13:30:24.109Z,22.45
2022-11-27T13:32:56.257Z,20.85
2022-11-27T13:35:30.134Z,20.42
2022-11-27T13:38:06.582Z,24.05
2022-11-27T13:40:42.279Z,24.38
2022-11-27T13:43:23.957Z,26.48
2022-11-27T13:46:01.614Z,27.52
2022-11-27T13:48:35.005Z,29.48
2022-11-27T13:51:07.013Z,26.02
2022-11-27T13:53:38.957Z,24.83
2022-11-27T13:56:11.990Z,33.60
2022-11-27T13:58:43.482Z,31.45
2022-11-27T14:01:18.621Z,30.83
2022-11-27T14:03:48.386Z,29.70
2022-11-27T14:06:22.123Z,31.38
2022-11-27T14:08:54.626Z,30.17
2022-11-27T14:11:36.498Z,29.98
2022-11-27T14:14:15.067Z,36.00
2022-11-27T14:16:53.662Z,35.80
2022-11-27T14:19:33.911Z,35.67
2022-11-27T14:22:14.682Z,41.17
2022-11-27T14:24:45.972Z,42.20
2022-11-27T14:27:21.686Z,39.97
2022-11-27T14:29:51.610Z,48.72
2022-11-27T14:32:22.160Z,37.40
2022-11-27T14:34:51.305Z,38.65
2022-11-27T14:37:25.854Z,40.38
2022-11-27T14:39:55.672Z,52.55
2022-11-27T14:42:30.086Z,82.60
2022-11-27T14:45:06.553Z,107.38
2022-11-27T14:47:36.669Z,94.03
2022-11-27T14:50:07.290Z,82.25
2022-11-27T14:52:37.043Z,77.22
2022-11-27T14:55:06.932Z,67.30
2022-11-27T14:57:37.879Z,101.65
2022-11-27T15:00:18.331Z,84.65
2022-11-27T15:02:49.745Z,82.55
2022-11-27T15:05:22.831Z,93.13
2022-11-27T15:07:54.977Z,68.40
2022-11-27T15:10:37.250Z,42.25
2022-11-27T15:13:21.080Z,44.50
2022-11-27T15:15:58.678Z,69.47
2022-11-27T15:18:30.848Z,63.45
2022-11-27T15:21:00.818Z,62.92
2022-11-27T15:23:32.178Z,49.28
2022-11-27T15:26:16.073Z,67.60
2022-11-27T15:28:55.269Z,62.80
2022-11-27T15:31:27.591Z,49.47
2022-11-27T15:33:59.496Z,49.60
2022-11-27T15:36:35.135Z,46.10
2022-11-27T15:39:19.233Z,82.88
2022-11-27T15:41:56.991Z,118.35
2022-11-27T15:44:29.495Z,132.98
2022-11-27T15:47:00.831Z,113.90
2022-11-27T15:49:31.080Z,102.20
2022-11-27T15:52:01.905Z,123.18
2022-11-27T15:54:31.478Z,109.95
2022-11-27T15:57:00.526Z,101.50
2022-11-27T15:59:31.346Z,91.40
2022-11-27T16:02:00.952Z,87.43
2022-11-27T16:04:30.875Z,95.30
2022-11-27T16:07:00.004Z,89.35
2022-11-27T16:09:29.704Z,92.88
2022-11-27T16:11:59.027Z,96.90
2022-11-27T16:14:28.444Z,87.00
2022-11-27T16:17:00.593Z,105.47
2022-11-27T16:19:30.187Z,140.43
2022-11-27T16:21:59.314Z,136.13
2022-11-27T16:24:28.739Z,114.78
2022-11-27T16:26:57.903Z,133.18
2022-11-27T16:29:27.307Z,136.48
2022-11-27T16:31:58.176Z,129.57
2022-11-27T16:34:27.752Z,113.07
2022-11-27T16:36:56.967Z,117.13
2022-11-27T16:39:26.307Z,130.82
2022-11-27T16:41:55.752Z,138.52
2022-11-27T16:44:25.403Z,135.82
2022-11-27T16:46:55.413Z,130.70
2022-11-27T16:49:26.240Z,138.25
2022-11-27T16:51:55.517Z,139.25
2022-11-27T16:54:24.915Z,121.40
2022-11-27T16:56:55.246Z,130.30
2022-11-27T16:59:24.626Z,119.50
2022-11-27T17:01:53.812Z,118.57
2022-11-27T17:04:23.881Z,117.93
2022-11-27T17:06:54.392Z,119.72
2022-11-27T17:09:26.021Z,127.72
2022-11-27T17:11:56.797Z,125.60
2022-11-27T17:14:28.706Z,123.93
2022-11-27T17:16:57.881Z,126.53
2022-11-27T17:19:30.001Z,115.25
2022-11-27T17:22:00.563Z,161.90
2022-11-27T17:24:30.134Z,186.82
2022-11-27T17:26:59.350Z,161.32
2022-11-27T17:29:35.166Z,170.43
2022-11-27T17:32:07.347Z,159.85
2022-11-27T17:34:36.959Z,167.68
2022-11-27T17:37:07.853Z,183.18
2022-11-27T17:39:37.304Z,173.70
2022-11-27T17:42:11.457Z,173.35
2022-11-27T17:44:42.826Z,186.82
2022-11-27T17:47:11.865Z,181.43
2022-11-27T17:49:41.977Z,178.32
2022-11-27T17:52:14.140Z,179.27
2022-11-27T17:54:44.672Z,192.82
2022-11-27T17:57:13.868Z,218.25
2022-11-27T17:59:44.015Z,198.52
2022-11-27T18:02:13.814Z,153.88
2022-11-27T18:04:45.058Z,162.13
2022-11-27T18:07:17.313Z,154.55
2022-11-27T18:09:47.641Z,127.05
2022-11-27T18:12:16.783Z,97.07
2022-11-27T18:14:46.153Z,80.10
2022-11-27T18:17:17.281Z,99.40
2022-11-27T18:19:46.797Z,107.70
2022-11-27T18:22:17.642Z,102.68
2022-11-27T18:24:47.247Z,99.72
2022-11-27T18:27:17.402Z,68.32
2022-11-27T18:29:47.255Z,76.05
2022-11-27T18:32:18.610Z,63.60
2022-11-27T18:34:48.298Z,72.13
2022-11-27T18:37:18.799Z,63.92
2022-11-27T18:39:48.268Z,69.72
2022-11-27T18:42:17.435Z,67.30
2022-11-27T18:44:47.757Z,72.15
2022-11-27T18:47:18.208Z,70.38
2022-11-27T18:49:49.625Z,76.05
2022-11-27T18:52:20.232Z,72.35
2022-11-27T18:54:49.685Z,74.40
2022-11-27T18:57:19.703Z,81.95
2022-11-27T18:59:50.230Z,73.25
2022-11-27T19:02:20.305Z,76.10
2022-11-27T19:04:50.315Z,80.22
2022-11-27T19:07:21.071Z,79.80
2022-11-27T19:09:50.597Z,105.97
2022-11-27T19:12:19.769Z,93.28
2022-11-27T19:14:49.603Z,86.40
2022-11-27T19:17:19.701Z,95.95
2022-11-27T19:19:54.153Z,90.13
2022-11-27T19:22:35.248Z,74.68
2022-11-27T19:25:04.835Z,74.07
2022-11-27T19:27:34.609Z,77.53
2022-11-27T19:30:04.811Z,71.40
2022-11-27T19:32:34.078Z,70.93
2022-11-27T19:35:07.186Z,65.03
2022-11-27T19:37:38.290Z,76.43
2022-11-27T19:40:09.384Z,67.13
2022-11-27T19:42:38.852Z,73.85
2022-11-27T19:45:09.235Z,65.82
2022-11-27T19:47:38.561Z,72.32
2022-11-27T19:50:10.070Z,67.88
2022-11-27T19:52:41.769Z,69.45
2022-11-27T19:55:11.842Z,64.25
2022-11-27T19:57:40.990Z,61.38
2022-11-27T20:00:12.462Z,61.88
2022-11-27T20:02:44.978Z,63.38
2022-11-27T20:05:14.647Z,60.75
2022-11-27T20:07:45.310Z,65.68
2022-11-27T20:10:15.607Z,62.03
2022-11-27T20:12:44.685Z,57.55
2022-11-27T20:15:16.852Z,72.85
2022-11-27T20:17:45.952Z,64.60
2022-11-27T20:20:16.937Z,63.30
2022-11-27T20:22:47.488Z,62.60
2022-11-27T20:25:19.832Z,64.30
2022-11-27T20:27:50.828Z,64.38
2022-11-27T20:30:21.444Z,83.05
2022-11-27T20:32:50.879Z,70.25
2022-11-27T20:35:20.235Z,80.28
2022-11-27T20:37:51.212Z,80.90
2022-11-27T20:40:23.605Z,90.78
2022-11-27T20:42:52.770Z,84.22
2022-11-27T20:45:22.270Z,108.35
2022-11-27T20:47:52.060Z,104.97
2022-11-27T20:50:21.913Z,112.25
2022-11-27T20:52:52.422Z,128.80
2022-11-27T20:55:21.716Z,116.60
2022-11-27T20:57:54.732Z,117.32
2022-11-27T21:00:25.450Z,124.63
2022-11-27T21:02:55.288Z,107.68
2022-11-27T21:05:24.773Z,105.50
2022-11-27T21:07:57.405Z,107.18
2022-11-27T21:10:26.954Z,97.85
2022-11-27T21:12:56.079Z,98.32
2022-11-27T21:15:25.540Z,111.72
2022-11-27T21:17:54.760Z,110.28
2022-11-27T21:20:24.109Z,109.35
2022-11-27T21:22:54.662Z,112.80
2022-11-27T21:25:25.798Z,93.95
2022-11-27T21:27:58.087Z,111.55
2022-11-27T21:30:28.216Z,103.70
2022-11-27T21:32:58.396Z,113.30
2022-11-27T21:35:31.722Z,112.05
2022-11-27T21:38:04.118Z,116.82
2022-11-27T21:40:33.510Z,100.65
2022-11-27T21:43:02.585Z,105.88
2022-11-27T21:45:31.972Z,111.90
2022-11-27T21:48:01.140Z,103.10
2022-11-27T21:50:30.573Z,111.00
2022-11-27T21:52:59.745Z,115.63
2022-11-27T21:55:30.675Z,116.68
2022-11-27T21:57:59.867Z,108.75
2022-11-27T22:00:29.337Z,108.72
2022-11-27T22:02:58.440Z,123.45
2022-11-27T22:05:27.999Z,127.80
2022-11-27T22:07:57.158Z,116.63
2022-11-27T22:10:26.609Z,113.10
2022-11-27T22:12:57.247Z,100.53
2022-11-27T22:15:26.644Z,97.05
2022-11-27T22:17:55.828Z,85.30
2022-11-27T22:20:25.521Z,100.82
2022-11-27T22:22:55.433Z,106.75
2022-11-27T22:25:25.308Z,93.50
2022-11-27T22:27:56.564Z,91.53
2022-11-27T22:30:26.221Z,84.57
2022-11-27T22:32:56.041Z,78.80
2022-11-27T22:35:26.541Z,78.97
2022-11-27T22:37:56.539Z,77.78
2022-11-27T22:40:26.201Z,100.68
2022-11-27T22:42:56.654Z,111.75
2022-11-27T22:45:26.117Z,95.47
2022-11-27T22:47:55.329Z,76.68
2022-11-27T22:50:24.869Z,81.75
2022-11-27T22:52:58.167Z,81.82
2022-11-27T22:55:28.202Z,82.97
2022-11-27T22:57:58.712Z,112.47
2022-11-27T23:00:28.163Z,108.90
2022-11-27T23:02:58.732Z,103.28
2022-11-27T23:05:28.312Z,115.60
2022-11-27T23:07:57.656Z,98.38
2022-11-27T23:10:27.698Z,94.85
2022-11-27T23:12:58.072Z,81.05
2022-11-27T23:15:27.458Z,79.78
2022-11-27T23:17:58.171Z,88.72
2022-11-27T23:20:27.862Z,75.57
2022-11-27T23:22:56.997Z,81.50
2022-11-27T23:25:26.412Z,72.95
2022-11-27T23:27:55.594Z,65.75
2022-11-27T23:30:26.251Z,59.00
2022-11-27T23:32:55.293Z,62.83
2022-11-27T23:35:24.780Z,63.90
2022-11-27T23:37:53.978Z,63.38
2022-11-27T23:40:23.358Z,57.70
2022-11-27T23:42:52.638Z,58.65
2022-11-27T23:45:22.043Z,63.08
2022-11-27T23:47:52.462Z,62.40
2022-11-27T23:50:21.825Z,55.92
2022-11-27T23:52:51.057Z,57.90
2022-11-27T23:55:20.679Z,49.20
2022-11-27T23:57:49.914Z,65.53
